Date,TemperatureHighF,TemperatureAvgF,TemperatureLowF,DewpointHighF,DewpointAvgF,DewpointLowF,HumidityHigh,HumidityAvg,HumidityLow,PressureMaxIn,PressureMinIn,WindSpeedMaxMPH,WindSpeedAvgMPH,GustSpeedMaxMPH,PrecipitationSumIn
2013-2-1,20,18,17,-100,-100,-100,0,0,100,0.00,40.00,0,-999,0,0.07
2013-2-2,32,18,12,-100,-100,-100,0,0,100,0.00,40.00,0,-999,0,0.01
2013-2-3,30,18,11,-100,-100,-100,0,0,100,0.00,40.00,0,-999,0,0.00
2013-2-4,25,18,11,-100,-100,-100,0,0,100,0.00,40.00,0,-999,0,0.00
2013-2-5,31,24,15,-100,-100,-100,0,0,100,0.00,40.00,0,-999,0,0.00
2013-2-6,28,22,15,-100,-100,-100,0,0,100,0.00,40.00,0,-999,0,0.01
2013-2-7,29,15,5,-100,-100,-100,0,0,100,0.00,40.00,0,-999,0,0.00
2013-2-8,32,23,14,-100,-100,-100,0,0,100,0.00,40.00,0,-999,0,0.00
2013-2-9,21,17,10,-100,-100,-100,0,0,100,0.00,40.00,0,-999,0,0.02
2013-2-10,12,7,-2,-100,-100,-100,0,0,100,0.00,40.00,0,-999,0,0.02
2013-2-11,14,1,-6,-100,-100,-100,0,0,100,0.00,40.00,0,-999,0,0.00
2013-2-12,20,6,-7,-100,-100,-100,0,0,100,0.00,40.00,0,-999,0,0.01
2013-2-13,17,14,9,-100,-100,-100,0,0,100,0.00,40.00,0,-999,0,0.02
2013-2-14,18,14,10,-100,-100,-100,0,0,100,0.00,40.00,0,-999,0,0.04
2013-2-15,15,12,8,-100,-100,-100,0,0,100,0.00,40.00,0,-999,0,0.01
2013-2-16,28,19,13,-100,-100,-100,0,0,100,0.00,40.00,0,-999,0,0.01
2013-2-17,31,18,10,-100,-100,-100,0,0,100,0.00,40.00,0,-999,0,0.01
2013-2-18,12,8,4,-100,-100,-100,0,0,100,0.00,40.00,0,-999,0,0.01
2013-2-19,27,15,5,-100,-100,-100,0,0,100,0.00,40.00,0,-999,0,0.00
2013-2-20,30,20,14,-100,-100,-100,0,0,100,0.00,40.00,0,-999,0,0.01
2013-2-21,20,15,7,-100,-100,-100,0,0,100,0.00,40.00,0,-999,0,0.00
2013-2-22,14,8,3,-100,-100,-100,0,0,100,0.00,40.00,0,-999,0,0.00
2013-2-23,23,12,6,-100,-100,-100,0,0,100,0.00,40.00,0,-999,0,0.01
2013-2-24,13,10,8,-100,-100,-100,0,0,100,0.00,40.00,0,-999,0,0.01
2013-2-25,24,14,1,-100,-100,-100,0,0,100,0.00,40.00,0,-999,0,0.00
2013-2-26,13,10,7,-100,-100,-100,0,0,100,0.00,40.00,0,-999,0,0.01
2013-2-27,15,7,2,-100,-100,-100,0,0,100,0.00,40.00,0,-999,0,0.01
2013-2-28,17,10,2,-100,-100,-100,0,0,100,0.00,40.00,0,-999,0,0.01